sensor_id;sensor_type;location;lat;lon;timestamp;P1;durP1;ratioP1;P2;durP2;ratioP2
14074;SDS011;12831;52.392;13.066;2023-07-13T00:00:04;4.75;;;1.80;;
14074;SDS011;12831;52.392;13.066;2023-07-13T00:02:43;3.25;;;1.73;;
14074;SDS011;12831;52.392;13.066;2023-07-13T00:05:09;3.05;;;1.92;;
14074;SDS011;12831;52.392;13.066;2023-07-13T00:07:35;5.88;;;1.70;;
14074;SDS011;12831;52.392;13.066;2023-07-13T00:10:02;4.07;;;1.85;;
14074;SDS011;12831;52.392;13.066;2023-07-13T00:12:30;4.75;;;1.85;;
14074;SDS011;12831;52.392;13.066;2023-07-13T00:14:57;4.00;;;1.90;;
14074;SDS011;12831;52.392;13.066;2023-07-13T00:17:23;4.13;;;1.50;;
14074;SDS011;12831;52.392;13.066;2023-07-13T00:19:49;3.55;;;1.63;;
14074;SDS011;12831;52.392;13.066;2023-07-13T00:22:15;4.95;;;1.58;;
14074;SDS011;12831;52.392;13.066;2023-07-13T00:24:41;3.65;;;1.80;;
14074;SDS011;12831;52.392;13.066;2023-07-13T00:27:08;3.28;;;1.55;;
14074;SDS011;12831;52.392;13.066;2023-07-13T00:29:35;3.50;;;1.88;;
14074;SDS011;12831;52.392;13.066;2023-07-13T00:32:02;3.72;;;1.95;;
14074;SDS011;12831;52.392;13.066;2023-07-13T00:34:28;4.25;;;1.55;;
14074;SDS011;12831;52.392;13.066;2023-07-13T00:36:54;4.25;;;2.00;;
14074;SDS011;12831;52.392;13.066;2023-07-13T00:39:19;5.22;;;1.70;;
14074;SDS011;12831;52.392;13.066;2023-07-13T00:41:46;9.80;;;2.20;;
14074;SDS011;12831;52.392;13.066;2023-07-13T00:44:13;4.07;;;1.80;;
14074;SDS011;12831;52.392;13.066;2023-07-13T00:46:39;3.58;;;1.88;;
14074;SDS011;12831;52.392;13.066;2023-07-13T00:49:06;6.07;;;1.75;;
14074;SDS011;12831;52.392;13.066;2023-07-13T00:51:34;2.85;;;1.63;;
14074;SDS011;12831;52.392;13.066;2023-07-13T00:54:03;5.28;;;1.60;;
14074;SDS011;12831;52.392;13.066;2023-07-13T00:56:30;4.75;;;1.70;;
14074;SDS011;12831;52.392;13.066;2023-07-13T00:58:58;4.22;;;1.75;;
14074;SDS011;12831;52.392;13.066;2023-07-13T01:01:25;4.32;;;1.80;;
14074;SDS011;12831;52.392;13.066;2023-07-13T01:03:51;5.68;;;1.98;;
14074;SDS011;12831;52.392;13.066;2023-07-13T01:06:16;6.35;;;2.65;;
14074;SDS011;12831;52.392;13.066;2023-07-13T01:08:43;4.03;;;1.73;;
14074;SDS011;12831;52.392;13.066;2023-07-13T01:11:09;2.53;;;1.73;;
14074;SDS011;12831;52.392;13.066;2023-07-13T01:13:34;4.43;;;1.45;;
14074;SDS011;12831;52.392;13.066;2023-07-13T01:16:02;4.03;;;2.05;;
14074;SDS011;12831;52.392;13.066;2023-07-13T01:18:29;5.80;;;2.42;;
14074;SDS011;12831;52.392;13.066;2023-07-13T01:20:59;3.30;;;1.90;;
14074;SDS011;12831;52.392;13.066;2023-07-13T01:23:26;3.70;;;1.67;;
14074;SDS011;12831;52.392;13.066;2023-07-13T01:25:52;3.78;;;1.63;;
14074;SDS011;12831;52.392;13.066;2023-07-13T01:28:18;6.20;;;2.05;;
14074;SDS011;12831;52.392;13.066;2023-07-13T01:30:45;4.32;;;2.10;;
14074;SDS011;12831;52.392;13.066;2023-07-13T01:33:12;8.18;;;2.85;;
14074;SDS011;12831;52.392;13.066;2023-07-13T01:35:39;4.82;;;2.72;;
14074;SDS011;12831;52.392;13.066;2023-07-13T01:38:05;8.18;;;2.35;;
14074;SDS011;12831;52.392;13.066;2023-07-13T01:40:31;7.15;;;2.17;;
14074;SDS011;12831;52.392;13.066;2023-07-13T01:42:58;5.00;;;2.38;;
14074;SDS011;12831;52.392;13.066;2023-07-13T01:45:24;3.05;;;1.90;;
14074;SDS011;12831;52.392;13.066;2023-07-13T01:47:50;7.03;;;2.45;;
14074;SDS011;12831;52.392;13.066;2023-07-13T01:50:16;4.90;;;2.28;;
14074;SDS011;12831;52.392;13.066;2023-07-13T01:52:42;7.13;;;2.67;;
14074;SDS011;12831;52.392;13.066;2023-07-13T01:55:08;3.90;;;2.00;;
14074;SDS011;12831;52.392;13.066;2023-07-13T01:57:34;6.32;;;2.58;;
14074;SDS011;12831;52.392;13.066;2023-07-13T02:00:02;5.38;;;2.63;;
14074;SDS011;12831;52.392;13.066;2023-07-13T02:02:28;4.82;;;2.72;;
14074;SDS011;12831;52.392;13.066;2023-07-13T02:04:54;6.53;;;2.92;;
14074;SDS011;12831;52.392;13.066;2023-07-13T02:07:20;6.82;;;2.15;;
14074;SDS011;12831;52.392;13.066;2023-07-13T02:09:46;3.60;;;2.40;;
14074;SDS011;12831;52.392;13.066;2023-07-13T02:12:12;4.68;;;2.50;;
14074;SDS011;12831;52.392;13.066;2023-07-13T02:14:38;3.33;;;2.03;;
14074;SDS011;12831;52.392;13.066;2023-07-13T02:17:04;3.63;;;1.95;;
14074;SDS011;12831;52.392;13.066;2023-07-13T02:19:30;6.13;;;2.97;;
14074;SDS011;12831;52.392;13.066;2023-07-13T02:21:56;4.22;;;2.30;;
14074;SDS011;12831;52.392;13.066;2023-07-13T02:24:22;8.02;;;2.90;;
14074;SDS011;12831;52.392;13.066;2023-07-13T02:26:48;5.32;;;2.85;;
14074;SDS011;12831;52.392;13.066;2023-07-13T02:29:14;8.57;;;2.45;;
14074;SDS011;12831;52.392;13.066;2023-07-13T02:31:40;2.97;;;2.15;;
14074;SDS011;12831;52.392;13.066;2023-07-13T02:34:06;4.05;;;2.70;;
14074;SDS011;12831;52.392;13.066;2023-07-13T02:36:31;5.72;;;2.88;;
14074;SDS011;12831;52.392;13.066;2023-07-13T02:39:00;5.05;;;2.97;;
14074;SDS011;12831;52.392;13.066;2023-07-13T02:41:26;6.40;;;3.20;;
14074;SDS011;12831;52.392;13.066;2023-07-13T02:43:52;5.95;;;3.08;;
14074;SDS011;12831;52.392;13.066;2023-07-13T02:46:18;4.80;;;2.58;;
14074;SDS011;12831;52.392;13.066;2023-07-13T02:48:45;5.63;;;2.90;;
14074;SDS011;12831;52.392;13.066;2023-07-13T02:51:11;6.10;;;3.00;;
14074;SDS011;12831;52.392;13.066;2023-07-13T02:53:37;7.15;;;3.35;;
14074;SDS011;12831;52.392;13.066;2023-07-13T02:56:04;5.85;;;3.33;;
14074;SDS011;12831;52.392;13.066;2023-07-13T02:58:30;8.68;;;3.38;;
14074;SDS011;12831;52.392;13.066;2023-07-13T03:00:56;6.68;;;3.10;;
14074;SDS011;12831;52.392;13.066;2023-07-13T03:03:23;4.72;;;3.00;;
14074;SDS011;12831;52.392;13.066;2023-07-13T03:05:57;8.48;;;2.70;;
14074;SDS011;12831;52.392;13.066;2023-07-13T03:08:23;5.45;;;2.83;;
14074;SDS011;12831;52.392;13.066;2023-07-13T03:10:50;5.32;;;2.97;;
14074;SDS011;12831;52.392;13.066;2023-07-13T03:13:23;7.80;;;3.42;;
14074;SDS011;12831;52.392;13.066;2023-07-13T03:15:49;4.10;;;3.08;;
14074;SDS011;12831;52.392;13.066;2023-07-13T03:18:15;5.25;;;2.60;;
14074;SDS011;12831;52.392;13.066;2023-07-13T03:20:41;5.50;;;2.95;;
14074;SDS011;12831;52.392;13.066;2023-07-13T03:23:07;8.70;;;3.15;;
14074;SDS011;12831;52.392;13.066;2023-07-13T03:25:33;17.27;;;7.47;;
14074;SDS011;12831;52.392;13.066;2023-07-13T03:27:59;7.40;;;3.72;;
14074;SDS011;12831;52.392;13.066;2023-07-13T03:30:24;4.50;;;2.80;;
14074;SDS011;12831;52.392;13.066;2023-07-13T03:32:51;5.40;;;3.25;;
14074;SDS011;12831;52.392;13.066;2023-07-13T03:35:17;4.75;;;2.53;;
14074;SDS011;12831;52.392;13.066;2023-07-13T03:37:43;5.00;;;3.03;;
14074;SDS011;12831;52.392;13.066;2023-07-13T03:40:09;5.28;;;3.25;;
14074;SDS011;12831;52.392;13.066;2023-07-13T03:42:35;9.05;;;3.33;;
14074;SDS011;12831;52.392;13.066;2023-07-13T03:45:01;6.25;;;3.03;;
14074;SDS011;12831;52.392;13.066;2023-07-13T03:47:27;3.80;;;2.67;;
14074;SDS011;12831;52.392;13.066;2023-07-13T03:49:53;6.03;;;3.70;;
14074;SDS011;12831;52.392;13.066;2023-07-13T03:52:19;4.18;;;2.70;;
14074;SDS011;12831;52.392;13.066;2023-07-13T03:54:45;7.90;;;3.38;;
14074;SDS011;12831;52.392;13.066;2023-07-13T03:57:11;5.40;;;3.08;;
14074;SDS011;12831;52.392;13.066;2023-07-13T03:59:36;4.15;;;2.72;;
14074;SDS011;12831;52.392;13.066;2023-07-13T04:02:02;5.25;;;2.63;;
14074;SDS011;12831;52.392;13.066;2023-07-13T04:04:29;4.90;;;2.45;;
14074;SDS011;12831;52.392;13.066;2023-07-13T04:06:59;3.20;;;1.73;;
14074;SDS011;12831;52.392;13.066;2023-07-13T04:09:25;5.05;;;2.08;;
14074;SDS011;12831;52.392;13.066;2023-07-13T04:11:51;4.63;;;1.77;;
14074;SDS011;12831;52.392;13.066;2023-07-13T04:14:17;3.83;;;2.47;;
14074;SDS011;12831;52.392;13.066;2023-07-13T04:16:43;4.20;;;2.20;;
14074;SDS011;12831;52.392;13.066;2023-07-13T04:19:09;4.18;;;1.77;;
14074;SDS011;12831;52.392;13.066;2023-07-13T04:21:36;8.40;;;2.05;;
14074;SDS011;12831;52.392;13.066;2023-07-13T04:24:02;4.88;;;1.80;;
14074;SDS011;12831;52.392;13.066;2023-07-13T04:26:28;4.38;;;1.92;;
14074;SDS011;12831;52.392;13.066;2023-07-13T04:28:55;4.45;;;1.88;;
14074;SDS011;12831;52.392;13.066;2023-07-13T04:31:21;3.72;;;1.77;;
14074;SDS011;12831;52.392;13.066;2023-07-13T04:33:47;4.95;;;1.67;;
14074;SDS011;12831;52.392;13.066;2023-07-13T04:36:14;3.22;;;1.50;;
14074;SDS011;12831;52.392;13.066;2023-07-13T04:38:40;3.45;;;1.98;;
14074;SDS011;12831;52.392;13.066;2023-07-13T04:41:07;5.95;;;2.20;;
14074;SDS011;12831;52.392;13.066;2023-07-13T04:43:33;7.78;;;2.33;;
14074;SDS011;12831;52.392;13.066;2023-07-13T04:48:52;4.47;;;2.10;;
14074;SDS011;12831;52.392;13.066;2023-07-13T04:51:18;4.25;;;2.58;;
14074;SDS011;12831;52.392;13.066;2023-07-13T04:53:44;3.90;;;1.88;;
14074;SDS011;12831;52.392;13.066;2023-07-13T04:56:10;4.00;;;2.00;;
14074;SDS011;12831;52.392;13.066;2023-07-13T04:58:37;5.85;;;2.25;;
14074;SDS011;12831;52.392;13.066;2023-07-13T05:01:03;6.40;;;2.08;;
14074;SDS011;12831;52.392;13.066;2023-07-13T05:03:30;6.10;;;1.83;;
14074;SDS011;12831;52.392;13.066;2023-07-13T05:06:00;6.60;;;2.28;;
14074;SDS011;12831;52.392;13.066;2023-07-13T05:08:26;4.18;;;1.92;;
14074;SDS011;12831;52.392;13.066;2023-07-13T05:10:52;4.40;;;2.22;;
14074;SDS011;12831;52.392;13.066;2023-07-13T05:13:18;5.22;;;1.80;;
14074;SDS011;12831;52.392;13.066;2023-07-13T05:15:44;6.72;;;1.88;;
14074;SDS011;12831;52.392;13.066;2023-07-13T05:18:10;5.00;;;1.95;;
14074;SDS011;12831;52.392;13.066;2023-07-13T05:20:36;3.95;;;2.00;;
14074;SDS011;12831;52.392;13.066;2023-07-13T05:23:02;6.93;;;1.65;;
14074;SDS011;12831;52.392;13.066;2023-07-13T05:25:29;4.60;;;1.75;;
14074;SDS011;12831;52.392;13.066;2023-07-13T05:27:55;4.47;;;1.77;;
14074;SDS011;12831;52.392;13.066;2023-07-13T05:30:21;5.65;;;2.28;;
14074;SDS011;12831;52.392;13.066;2023-07-13T05:32:47;2.90;;;1.55;;
14074;SDS011;12831;52.392;13.066;2023-07-13T05:35:13;4.07;;;1.45;;
14074;SDS011;12831;52.392;13.066;2023-07-13T05:37:39;3.03;;;1.30;;
14074;SDS011;12831;52.392;13.066;2023-07-13T05:40:05;4.20;;;1.85;;
14074;SDS011;12831;52.392;13.066;2023-07-13T05:42:31;3.55;;;1.60;;
14074;SDS011;12831;52.392;13.066;2023-07-13T05:44:57;3.05;;;1.65;;
14074;SDS011;12831;52.392;13.066;2023-07-13T05:47:23;4.25;;;1.55;;
14074;SDS011;12831;52.392;13.066;2023-07-13T05:49:51;7.47;;;2.30;;
14074;SDS011;12831;52.392;13.066;2023-07-13T05:52:17;2.20;;;1.30;;
14074;SDS011;12831;52.392;13.066;2023-07-13T05:54:43;3.78;;;1.38;;
14074;SDS011;12831;52.392;13.066;2023-07-13T05:57:10;7.93;;;1.30;;
14074;SDS011;12831;52.392;13.066;2023-07-13T05:59:36;5.35;;;1.45;;
14074;SDS011;12831;52.392;13.066;2023-07-13T06:02:02;3.08;;;1.40;;
14074;SDS011;12831;52.392;13.066;2023-07-13T06:04:29;3.88;;;1.50;;
14074;SDS011;12831;52.392;13.066;2023-07-13T06:06:54;3.58;;;1.70;;
14074;SDS011;12831;52.392;13.066;2023-07-13T06:09:21;4.35;;;1.65;;
14074;SDS011;12831;52.392;13.066;2023-07-13T06:11:47;3.95;;;1.63;;
14074;SDS011;12831;52.392;13.066;2023-07-13T06:14:13;2.47;;;1.10;;
14074;SDS011;12831;52.392;13.066;2023-07-13T06:16:39;3.08;;;1.35;;
14074;SDS011;12831;52.392;13.066;2023-07-13T06:19:05;3.40;;;1.40;;
14074;SDS011;12831;52.392;13.066;2023-07-13T06:21:31;2.47;;;0.93;;
14074;SDS011;12831;52.392;13.066;2023-07-13T06:23:57;3.47;;;1.00;;
14074;SDS011;12831;52.392;13.066;2023-07-13T06:26:24;7.50;;;1.52;;
14074;SDS011;12831;52.392;13.066;2023-07-13T06:28:50;4.65;;;1.48;;
14074;SDS011;12831;52.392;13.066;2023-07-13T06:31:17;4.55;;;1.60;;
14074;SDS011;12831;52.392;13.066;2023-07-13T06:33:43;3.65;;;1.40;;
14074;SDS011;12831;52.392;13.066;2023-07-13T06:36:15;2.90;;;1.30;;
14074;SDS011;12831;52.392;13.066;2023-07-13T06:38:41;3.75;;;1.75;;
14074;SDS011;12831;52.392;13.066;2023-07-13T06:41:07;3.05;;;1.20;;
14074;SDS011;12831;52.392;13.066;2023-07-13T06:43:34;6.05;;;1.80;;
14074;SDS011;12831;52.392;13.066;2023-07-13T06:46:00;5.15;;;1.70;;
14074;SDS011;12831;52.392;13.066;2023-07-13T06:48:27;6.88;;;1.95;;
14074;SDS011;12831;52.392;13.066;2023-07-13T06:50:54;3.80;;;1.10;;
14074;SDS011;12831;52.392;13.066;2023-07-13T06:53:20;5.80;;;2.30;;
14074;SDS011;12831;52.392;13.066;2023-07-13T06:55:50;4.85;;;2.22;;
14074;SDS011;12831;52.392;13.066;2023-07-13T06:58:17;2.00;;;1.02;;
14074;SDS011;12831;52.392;13.066;2023-07-13T07:00:44;3.08;;;1.20;;
14074;SDS011;12831;52.392;13.066;2023-07-13T07:03:10;5.20;;;1.30;;
14074;SDS011;12831;52.392;13.066;2023-07-13T07:05:37;9.45;;;1.70;;
14074;SDS011;12831;52.392;13.066;2023-07-13T07:08:03;2.75;;;1.30;;
14074;SDS011;12831;52.392;13.066;2023-07-13T07:10:33;8.48;;;1.48;;
14074;SDS011;12831;52.392;13.066;2023-07-13T07:13:00;4.25;;;1.42;;
14074;SDS011;12831;52.392;13.066;2023-07-13T07:15:26;3.75;;;1.58;;
14074;SDS011;12831;52.392;13.066;2023-07-13T07:17:52;3.88;;;1.48;;
14074;SDS011;12831;52.392;13.066;2023-07-13T07:20:18;5.43;;;1.40;;
14074;SDS011;12831;52.392;13.066;2023-07-13T07:22:46;2.33;;;1.10;;
14074;SDS011;12831;52.392;13.066;2023-07-13T07:25:25;6.80;;;1.45;;
14074;SDS011;12831;52.392;13.066;2023-07-13T07:27:51;4.88;;;1.85;;
14074;SDS011;12831;52.392;13.066;2023-07-13T07:30:21;5.25;;;1.70;;
14074;SDS011;12831;52.392;13.066;2023-07-13T07:32:50;5.30;;;1.38;;
14074;SDS011;12831;52.392;13.066;2023-07-13T07:35:23;3.15;;;1.20;;
14074;SDS011;12831;52.392;13.066;2023-07-13T07:38:04;4.07;;;1.30;;
14074;SDS011;12831;52.392;13.066;2023-07-13T07:40:30;2.80;;;1.10;;
14074;SDS011;12831;52.392;13.066;2023-07-13T07:42:59;5.85;;;1.52;;
14074;SDS011;12831;52.392;13.066;2023-07-13T07:45:27;4.38;;;1.20;;
14074;SDS011;12831;52.392;13.066;2023-07-13T07:47:53;3.70;;;1.48;;
14074;SDS011;12831;52.392;13.066;2023-07-13T07:50:21;4.57;;;1.25;;
14074;SDS011;12831;52.392;13.066;2023-07-13T07:52:52;4.85;;;1.83;;
14074;SDS011;12831;52.392;13.066;2023-07-13T07:55:21;3.58;;;1.70;;
14074;SDS011;12831;52.392;13.066;2023-07-13T07:57:50;4.97;;;1.45;;
14074;SDS011;12831;52.392;13.066;2023-07-13T08:00:19;4.72;;;1.30;;
14074;SDS011;12831;52.392;13.066;2023-07-13T08:02:48;5.28;;;1.08;;
14074;SDS011;12831;52.392;13.066;2023-07-13T08:05:19;5.72;;;1.15;;
14074;SDS011;12831;52.392;13.066;2023-07-13T08:08:05;9.63;;;1.52;;
14074;SDS011;12831;52.392;13.066;2023-07-13T08:10:34;5.18;;;1.98;;
14074;SDS011;12831;52.392;13.066;2023-07-13T08:13:00;3.58;;;1.20;;
14074;SDS011;12831;52.392;13.066;2023-07-13T08:15:29;5.75;;;1.15;;
14074;SDS011;12831;52.392;13.066;2023-07-13T08:17:57;2.70;;;1.17;;
14074;SDS011;12831;52.392;13.066;2023-07-13T08:20:23;3.55;;;1.00;;
14074;SDS011;12831;52.392;13.066;2023-07-13T08:22:52;8.05;;;1.17;;
14074;SDS011;12831;52.392;13.066;2023-07-13T08:25:18;4.72;;;1.10;;
14074;SDS011;12831;52.392;13.066;2023-07-13T08:27:45;3.58;;;0.90;;
14074;SDS011;12831;52.392;13.066;2023-07-13T08:30:11;3.80;;;1.23;;
14074;SDS011;12831;52.392;13.066;2023-07-13T08:32:37;4.32;;;1.00;;
14074;SDS011;12831;52.392;13.066;2023-07-13T08:35:04;3.83;;;1.13;;
14074;SDS011;12831;52.392;13.066;2023-07-13T08:37:30;6.13;;;1.25;;
14074;SDS011;12831;52.392;13.066;2023-07-13T08:39:56;3.38;;;1.20;;
14074;SDS011;12831;52.392;13.066;2023-07-13T08:42:29;3.03;;;1.17;;
14074;SDS011;12831;52.392;13.066;2023-07-13T08:47:24;6.70;;;1.20;;
14074;SDS011;12831;52.392;13.066;2023-07-13T08:49:50;5.32;;;1.50;;
14074;SDS011;12831;52.392;13.066;2023-07-13T08:52:20;4.35;;;1.40;;
14074;SDS011;12831;52.392;13.066;2023-07-13T08:54:53;3.30;;;1.30;;
14074;SDS011;12831;52.392;13.066;2023-07-13T08:57:24;3.70;;;1.20;;
14074;SDS011;12831;52.392;13.066;2023-07-13T08:59:54;3.03;;;1.48;;
14074;SDS011;12831;52.392;13.066;2023-07-13T09:02:23;6.20;;;1.45;;
14074;SDS011;12831;52.392;13.066;2023-07-13T09:07:29;2.85;;;1.63;;
14074;SDS011;12831;52.392;13.066;2023-07-13T09:15:23;7.10;;;1.75;;
14074;SDS011;12831;52.392;13.066;2023-07-13T09:17:52;4.65;;;1.48;;
14074;SDS011;12831;52.392;13.066;2023-07-13T09:20:31;4.78;;;1.83;;
14074;SDS011;12831;52.392;13.066;2023-07-13T09:23:00;3.97;;;1.38;;
14074;SDS011;12831;52.392;13.066;2023-07-13T09:28:15;6.27;;;1.80;;
14074;SDS011;12831;52.392;13.066;2023-07-13T09:30:58;5.25;;;2.17;;
14074;SDS011;12831;52.392;13.066;2023-07-13T09:33:26;3.45;;;1.58;;
14074;SDS011;12831;52.392;13.066;2023-07-13T09:35:55;7.63;;;1.92;;
14074;SDS011;12831;52.392;13.066;2023-07-13T09:38:23;3.92;;;1.63;;
14074;SDS011;12831;52.392;13.066;2023-07-13T09:41:04;4.15;;;1.80;;
14074;SDS011;12831;52.392;13.066;2023-07-13T09:43:38;8.00;;;2.28;;
14074;SDS011;12831;52.392;13.066;2023-07-13T09:46:04;7.32;;;2.40;;
14074;SDS011;12831;52.392;13.066;2023-07-13T09:48:33;3.83;;;1.88;;
14074;SDS011;12831;52.392;13.066;2023-07-13T09:51:04;5.20;;;1.92;;
14074;SDS011;12831;52.392;13.066;2023-07-13T09:53:33;2.42;;;1.45;;
14074;SDS011;12831;52.392;13.066;2023-07-13T09:59:17;5.50;;;1.75;;
14074;SDS011;12831;52.392;13.066;2023-07-13T10:01:46;3.28;;;1.50;;
14074;SDS011;12831;52.392;13.066;2023-07-13T10:04:16;5.15;;;1.92;;
14074;SDS011;12831;52.392;13.066;2023-07-13T10:06:44;4.15;;;1.73;;
14074;SDS011;12831;52.392;13.066;2023-07-13T10:09:13;8.25;;;1.75;;
14074;SDS011;12831;52.392;13.066;2023-07-13T10:11:40;5.07;;;1.63;;
14074;SDS011;12831;52.392;13.066;2023-07-13T10:14:17;4.32;;;1.63;;
14074;SDS011;12831;52.392;13.066;2023-07-13T10:16:45;4.13;;;1.70;;
14074;SDS011;12831;52.392;13.066;2023-07-13T10:21:41;4.47;;;1.85;;
14074;SDS011;12831;52.392;13.066;2023-07-13T10:24:15;3.15;;;1.83;;
14074;SDS011;12831;52.392;13.066;2023-07-13T10:26:53;5.95;;;1.52;;
14074;SDS011;12831;52.392;13.066;2023-07-13T10:29:25;5.78;;;1.92;;
14074;SDS011;12831;52.392;13.066;2023-07-13T10:31:52;6.53;;;2.05;;
14074;SDS011;12831;52.392;13.066;2023-07-13T10:34:20;7.28;;;2.00;;
14074;SDS011;12831;52.392;13.066;2023-07-13T10:36:47;6.05;;;1.70;;
14074;SDS011;12831;52.392;13.066;2023-07-13T10:39:24;5.18;;;1.92;;
14074;SDS011;12831;52.392;13.066;2023-07-13T10:41:58;5.40;;;1.83;;
14074;SDS011;12831;52.392;13.066;2023-07-13T10:44:26;4.35;;;1.48;;
14074;SDS011;12831;52.392;13.066;2023-07-13T10:46:55;4.90;;;1.65;;
14074;SDS011;12831;52.392;13.066;2023-07-13T10:49:21;6.55;;;2.30;;
14074;SDS011;12831;52.392;13.066;2023-07-13T10:51:50;4.90;;;1.60;;
14074;SDS011;12831;52.392;13.066;2023-07-13T10:54:18;4.68;;;1.80;;
14074;SDS011;12831;52.392;13.066;2023-07-13T10:57:06;4.43;;;1.73;;
14074;SDS011;12831;52.392;13.066;2023-07-13T10:59:34;5.63;;;2.15;;
14074;SDS011;12831;52.392;13.066;2023-07-13T11:04:29;6.22;;;2.15;;
14074;SDS011;12831;52.392;13.066;2023-07-13T11:06:57;4.03;;;1.77;;
14074;SDS011;12831;52.392;13.066;2023-07-13T11:09:40;6.15;;;1.58;;
14074;SDS011;12831;52.392;13.066;2023-07-13T11:12:29;6.47;;;2.00;;
14074;SDS011;12831;52.392;13.066;2023-07-13T11:15:11;3.20;;;1.63;;
14074;SDS011;12831;52.392;13.066;2023-07-13T11:22:51;3.78;;;1.50;;
14074;SDS011;12831;52.392;13.066;2023-07-13T11:25:31;5.80;;;1.92;;
14074;SDS011;12831;52.392;13.066;2023-07-13T11:30:41;5.05;;;1.55;;
14074;SDS011;12831;52.392;13.066;2023-07-13T11:35:40;9.27;;;1.95;;
14074;SDS011;12831;52.392;13.066;2023-07-13T11:38:18;3.65;;;1.83;;
14074;SDS011;12831;52.392;13.066;2023-07-13T11:40:45;5.45;;;1.52;;
14074;SDS011;12831;52.392;13.066;2023-07-13T11:43:20;2.35;;;1.30;;
14074;SDS011;12831;52.392;13.066;2023-07-13T11:45:50;5.70;;;1.43;;
14074;SDS011;12831;52.392;13.066;2023-07-13T11:48:20;7.78;;;1.70;;
14074;SDS011;12831;52.392;13.066;2023-07-13T11:51:05;6.18;;;1.30;;
14074;SDS011;12831;52.392;13.066;2023-07-13T11:53:44;5.05;;;1.33;;
14074;SDS011;12831;52.392;13.066;2023-07-13T11:56:27;4.35;;;1.23;;
14074;SDS011;12831;52.392;13.066;2023-07-13T11:58:55;5.35;;;1.27;;
14074;SDS011;12831;52.392;13.066;2023-07-13T12:01:27;5.70;;;1.83;;
14074;SDS011;12831;52.392;13.066;2023-07-13T12:04:01;3.85;;;1.55;;
14074;SDS011;12831;52.392;13.066;2023-07-13T12:06:44;3.35;;;1.20;;
14074;SDS011;12831;52.392;13.066;2023-07-13T12:09:11;5.30;;;1.92;;
14074;SDS011;12831;52.392;13.066;2023-07-13T12:11:45;4.32;;;1.85;;
14074;SDS011;12831;52.392;13.066;2023-07-13T12:14:15;5.60;;;1.25;;
14074;SDS011;12831;52.392;13.066;2023-07-13T12:16:43;4.10;;;1.25;;
14074;SDS011;12831;52.392;13.066;2023-07-13T12:19:15;5.25;;;1.33;;
14074;SDS011;12831;52.392;13.066;2023-07-13T12:21:42;4.60;;;1.35;;
14074;SDS011;12831;52.392;13.066;2023-07-13T12:24:20;3.03;;;1.63;;
14074;SDS011;12831;52.392;13.066;2023-07-13T12:26:59;2.60;;;1.00;;
14074;SDS011;12831;52.392;13.066;2023-07-13T12:29:30;4.35;;;2.28;;
14074;SDS011;12831;52.392;13.066;2023-07-13T12:31:56;3.80;;;1.55;;
14074;SDS011;12831;52.392;13.066;2023-07-13T12:34:25;3.85;;;1.05;;
14074;SDS011;12831;52.392;13.066;2023-07-13T12:36:53;3.53;;;1.17;;
14074;SDS011;12831;52.392;13.066;2023-07-13T12:39:22;3.33;;;1.00;;
14074;SDS011;12831;52.392;13.066;2023-07-13T12:41:50;4.57;;;0.93;;
14074;SDS011;12831;52.392;13.066;2023-07-13T12:44:27;4.00;;;1.33;;
14074;SDS011;12831;52.392;13.066;2023-07-13T12:46:58;2.72;;;1.17;;
14074;SDS011;12831;52.392;13.066;2023-07-13T12:49:27;6.57;;;1.50;;
14074;SDS011;12831;52.392;13.066;2023-07-13T12:51:56;2.72;;;1.10;;
14074;SDS011;12831;52.392;13.066;2023-07-13T12:54:23;3.25;;;1.20;;
14074;SDS011;12831;52.392;13.066;2023-07-13T12:56:53;4.78;;;1.55;;
14074;SDS011;12831;52.392;13.066;2023-07-13T12:59:20;5.55;;;1.58;;
14074;SDS011;12831;52.392;13.066;2023-07-13T13:01:47;4.90;;;1.52;;
14074;SDS011;12831;52.392;13.066;2023-07-13T13:04:15;6.95;;;1.00;;
14074;SDS011;12831;52.392;13.066;2023-07-13T13:06:42;3.38;;;1.02;;
14074;SDS011;12831;52.392;13.066;2023-07-13T13:09:11;4.25;;;1.25;;
14074;SDS011;12831;52.392;13.066;2023-07-13T13:11:38;5.05;;;1.25;;
14074;SDS011;12831;52.392;13.066;2023-07-13T13:14:06;3.85;;;1.30;;
14074;SDS011;12831;52.392;13.066;2023-07-13T13:16:34;6.93;;;1.30;;
14074;SDS011;12831;52.392;13.066;2023-07-13T13:19:05;6.22;;;1.35;;
14074;SDS011;12831;52.392;13.066;2023-07-13T13:21:38;8.35;;;1.40;;
14074;SDS011;12831;52.392;13.066;2023-07-13T13:24:14;3.85;;;1.00;;
14074;SDS011;12831;52.392;13.066;2023-07-13T13:29:43;5.38;;;1.00;;
14074;SDS011;12831;52.392;13.066;2023-07-13T13:32:12;6.53;;;1.65;;
14074;SDS011;12831;52.392;13.066;2023-07-13T13:34:38;2.10;;;1.00;;
14074;SDS011;12831;52.392;13.066;2023-07-13T13:37:20;4.25;;;1.10;;
14074;SDS011;12831;52.392;13.066;2023-07-13T13:39:48;4.93;;;1.38;;
14074;SDS011;12831;52.392;13.066;2023-07-13T13:42:33;3.13;;;0.90;;
14074;SDS011;12831;52.392;13.066;2023-07-13T13:45:00;3.70;;;1.30;;
14074;SDS011;12831;52.392;13.066;2023-07-13T13:47:29;10.30;;;1.20;;
14074;SDS011;12831;52.392;13.066;2023-07-13T13:49:56;5.25;;;1.55;;
14074;SDS011;12831;52.392;13.066;2023-07-13T13:52:23;8.60;;;1.25;;
14074;SDS011;12831;52.392;13.066;2023-07-13T13:57:42;1.90;;;0.77;;
14074;SDS011;12831;52.392;13.066;2023-07-13T14:00:11;5.97;;;1.40;;
14074;SDS011;12831;52.392;13.066;2023-07-13T14:02:44;5.80;;;1.15;;
14074;SDS011;12831;52.392;13.066;2023-07-13T14:05:14;5.88;;;1.40;;
14074;SDS011;12831;52.392;13.066;2023-07-13T14:07:41;2.45;;;0.90;;
14074;SDS011;12831;52.392;13.066;2023-07-13T14:10:12;2.65;;;0.80;;
14074;SDS011;12831;52.392;13.066;2023-07-13T14:12:39;3.22;;;0.80;;
14074;SDS011;12831;52.392;13.066;2023-07-13T14:15:06;12.10;;;1.70;;
14074;SDS011;12831;52.392;13.066;2023-07-13T14:17:32;2.90;;;0.90;;
14074;SDS011;12831;52.392;13.066;2023-07-13T14:20:02;4.75;;;0.90;;
14074;SDS011;12831;52.392;13.066;2023-07-13T14:22:30;3.92;;;1.10;;
14074;SDS011;12831;52.392;13.066;2023-07-13T14:28:19;3.30;;;1.05;;
14074;SDS011;12831;52.392;13.066;2023-07-13T14:30:47;2.58;;;0.82;;
14074;SDS011;12831;52.392;13.066;2023-07-13T14:33:14;3.58;;;1.10;;
14074;SDS011;12831;52.392;13.066;2023-07-13T14:35:41;4.80;;;0.90;;
14074;SDS011;12831;52.392;13.066;2023-07-13T14:38:09;3.75;;;0.70;;
14074;SDS011;12831;52.392;13.066;2023-07-13T14:40:36;3.92;;;0.70;;
14074;SDS011;12831;52.392;13.066;2023-07-13T14:43:07;3.72;;;0.90;;
14074;SDS011;12831;52.392;13.066;2023-07-13T14:45:35;5.45;;;0.70;;
14074;SDS011;12831;52.392;13.066;2023-07-13T14:48:04;5.38;;;1.50;;
14074;SDS011;12831;52.392;13.066;2023-07-13T14:50:31;5.03;;;0.70;;
14074;SDS011;12831;52.392;13.066;2023-07-13T14:52:58;1.25;;;0.80;;
14074;SDS011;12831;52.392;13.066;2023-07-13T14:55:29;1.67;;;0.63;;
14074;SDS011;12831;52.392;13.066;2023-07-13T14:57:55;2.57;;;0.87;;
14074;SDS011;12831;52.392;13.066;2023-07-13T15:00:23;4.20;;;1.02;;
14074;SDS011;12831;52.392;13.066;2023-07-13T15:02:51;5.80;;;0.73;;
14074;SDS011;12831;52.392;13.066;2023-07-13T15:05:20;2.00;;;0.52;;
14074;SDS011;12831;52.392;13.066;2023-07-13T15:07:48;3.60;;;0.65;;
14074;SDS011;12831;52.392;13.066;2023-07-13T15:10:22;4.07;;;0.88;;
14074;SDS011;12831;52.392;13.066;2023-07-13T15:12:57;2.83;;;0.98;;
14074;SDS011;12831;52.392;13.066;2023-07-13T15:15:24;3.83;;;0.70;;
14074;SDS011;12831;52.392;13.066;2023-07-13T15:17:50;1.42;;;0.85;;
14074;SDS011;12831;52.392;13.066;2023-07-13T15:20:27;3.03;;;0.73;;
14074;SDS011;12831;52.392;13.066;2023-07-13T15:22:57;2.22;;;0.88;;